createdAt,value
2022-10-23T00:00:51.241Z,95754.84
2022-10-23T00:02:54.495Z,95761.28
2022-10-23T00:04:54.257Z,95760.88
2022-10-23T00:06:52.848Z,95752.41
2022-10-23T00:08:51.199Z,95766.66
2022-10-23T00:10:49.433Z,95763.91
2022-10-23T00:12:48.672Z,95758.53
2022-10-23T00:14:46.804Z,95766.09
2022-10-23T00:16:45.657Z,95753.84
2022-10-23T00:18:44.362Z,95764.22
2022-10-23T00:20:43.940Z,95743.06
2022-10-23T00:22:42.415Z,95725.94
2022-10-23T00:24:40.590Z,95733.00
2022-10-23T00:26:40.765Z,95749.59
2022-10-23T00:28:39.694Z,95751.25
2022-10-23T00:30:37.769Z,95750.59
2022-10-23T00:32:36.191Z,95755.00
2022-10-23T00:34:34.478Z,95748.31
2022-10-23T00:36:36.476Z,95741.13
2022-10-23T00:38:35.101Z,95742.97
2022-10-23T00:40:34.039Z,95744.66
2022-10-23T00:42:32.338Z,95748.69
2022-10-23T00:45:08.001Z,95748.41
2022-10-23T00:47:06.091Z,95747.56
2022-10-23T00:49:06.482Z,95739.81
2022-10-23T00:51:05.209Z,95737.19
2022-10-23T00:53:06.420Z,95730.06
2022-10-23T00:55:05.853Z,95724.00
2022-10-23T00:57:08.291Z,95717.00
2022-10-23T00:59:06.621Z,95727.84
2022-10-23T01:01:17.048Z,95738.16
2022-10-23T01:03:17.126Z,95751.31
2022-10-23T01:05:15.297Z,95751.56
2022-10-23T01:07:24.881Z,95753.53
2022-10-23T01:09:34.198Z,95756.00
2022-10-23T01:12:32.403Z,95756.19
2022-10-23T01:14:47.246Z,95780.09
2022-10-23T01:16:50.830Z,95788.78
2022-10-23T01:18:57.979Z,95782.75
2022-10-23T01:21:02.509Z,95780.06
2022-10-23T01:23:32.981Z,95782.78
2022-10-23T01:25:53.017Z,95779.25
2022-10-23T01:27:57.181Z,95794.38
2022-10-23T01:30:06.147Z,95791.84
2022-10-23T01:32:17.842Z,95801.00
2022-10-23T01:34:21.345Z,95802.13
2022-10-23T01:36:25.136Z,95796.97
2022-10-23T01:38:32.439Z,95800.69
2022-10-23T01:40:46.109Z,95805.41
2022-10-23T01:42:51.006Z,95807.50
2022-10-23T01:45:00.878Z,95809.91
2022-10-23T01:47:11.006Z,95817.13
2022-10-23T01:49:24.801Z,95803.22
2022-10-23T01:51:29.860Z,95792.69
2022-10-23T01:53:38.533Z,95796.94
2022-10-23T01:55:43.251Z,95792.06
2022-10-23T01:57:50.170Z,95813.69
2022-10-23T01:59:52.580Z,95810.84
2022-10-23T02:01:55.392Z,95815.78
2022-10-23T02:03:55.419Z,95814.22
2022-10-23T02:05:54.052Z,95812.19
2022-10-23T02:07:53.232Z,95818.91
2022-10-23T02:09:52.649Z,95825.81
2022-10-23T02:11:56.463Z,95821.31
2022-10-23T02:14:00.862Z,95824.09
2022-10-23T02:16:06.832Z,95830.97
2022-10-23T02:18:15.329Z,95822.59
2022-10-23T02:20:20.936Z,95837.50
2022-10-23T02:22:24.238Z,95827.00
2022-10-23T02:24:30.213Z,95822.13
2022-10-23T02:26:34.250Z,95821.69
2022-10-23T02:28:40.069Z,95823.72
2022-10-23T02:30:44.285Z,95820.13
2022-10-23T02:32:48.825Z,95823.72
2022-10-23T02:34:50.087Z,95826.84
2022-10-23T02:36:48.702Z,95832.94
2022-10-23T02:38:47.669Z,95829.63
2022-10-23T02:40:48.559Z,95832.25
2022-10-23T02:42:55.144Z,95828.22
2022-10-23T02:45:02.577Z,95825.84
2022-10-23T02:47:11.643Z,95837.16
2022-10-23T02:49:18.538Z,95835.34
2022-10-23T02:51:27.183Z,95835.56
2022-10-23T02:53:34.482Z,95833.56
2022-10-23T02:55:45.988Z,95829.84
2022-10-23T02:57:49.764Z,95832.66
2022-10-23T02:59:59.298Z,95832.94
2022-10-23T03:02:09.754Z,95839.72
2022-10-23T03:04:11.298Z,95842.06
2022-10-23T03:06:10.373Z,95838.34
2022-10-23T03:08:12.142Z,95836.91
2022-10-23T03:10:11.924Z,95841.09
2022-10-23T03:12:10.214Z,95845.63
2022-10-23T03:14:08.753Z,95844.44
2022-10-23T03:16:06.967Z,95842.69
2022-10-23T03:18:06.337Z,95846.41
2022-10-23T03:20:05.363Z,95842.22
2022-10-23T03:22:03.519Z,95843.78
2022-10-23T03:24:03.190Z,95849.53
2022-10-23T03:26:08.103Z,95851.09
2022-10-23T03:28:13.174Z,95857.53
2022-10-23T03:30:12.535Z,95862.09
2022-10-23T03:32:11.825Z,95857.97
2022-10-23T03:34:11.329Z,95864.31
2022-10-23T03:36:11.988Z,95863.25
2022-10-23T03:38:11.692Z,95860.34
2022-10-23T03:40:12.764Z,95862.69
2022-10-23T03:42:10.971Z,95864.94
2022-10-23T03:44:09.455Z,95862.66
2022-10-23T03:46:12.336Z,95865.16
2022-10-23T03:48:10.865Z,95867.25
2022-10-23T03:50:09.987Z,95870.44
2022-10-23T03:52:09.674Z,95863.94
2022-10-23T03:54:07.926Z,95875.03
2022-10-23T03:56:07.961Z,95874.13
2022-10-23T03:58:06.192Z,95876.59
2022-10-23T04:00:06.005Z,95882.63
2022-10-23T04:02:14.351Z,95882.25
2022-10-23T04:04:13.791Z,95878.03
2022-10-23T04:06:14.460Z,95881.16
2022-10-23T04:08:16.312Z,95876.22
2022-10-23T04:10:19.806Z,95882.56
2022-10-23T04:12:19.586Z,95872.81
2022-10-23T04:14:17.970Z,95879.16
2022-10-23T04:16:16.550Z,95876.53
2022-10-23T04:18:16.131Z,95872.69
2022-10-23T04:20:14.475Z,95875.75
2022-10-23T04:22:12.832Z,95879.47
2022-10-23T04:24:11.185Z,95880.59
2022-10-23T04:26:09.748Z,95873.81
2022-10-23T04:28:09.361Z,95873.25
2022-10-23T04:30:11.347Z,95879.81
2022-10-23T04:32:10.121Z,95876.06
2022-10-23T04:34:09.716Z,95880.13
2022-10-23T04:36:08.763Z,95885.47
2022-10-23T04:38:07.008Z,95881.97
2022-10-23T04:40:06.040Z,95888.94
2022-10-23T04:42:06.922Z,95889.59
2022-10-23T04:44:07.844Z,95887.38
2022-10-23T04:46:09.962Z,95886.63
2022-10-23T04:48:08.323Z,95890.72
2022-10-23T04:50:24.339Z,95885.81
2022-10-23T04:52:41.620Z,95893.91
2022-10-23T04:59:08.986Z,95896.19
2022-10-23T05:01:10.714Z,95898.31
2022-10-23T05:03:09.567Z,95896.59
2022-10-23T05:08:57.697Z,95908.25
2022-10-23T05:11:48.073Z,95907.06
2022-10-23T05:13:46.266Z,95909.69
2022-10-23T05:22:12.380Z,95912.78
2022-10-23T05:28:43.005Z,95911.72
2022-10-23T05:30:46.754Z,95930.06
2022-10-23T05:32:46.382Z,95927.66
2022-10-23T05:34:45.226Z,95932.84
2022-10-23T05:36:44.879Z,95926.59
2022-10-23T05:38:45.893Z,95934.75
2022-10-23T05:40:51.950Z,95928.38
2022-10-23T05:42:51.578Z,95934.00
2022-10-23T05:44:56.661Z,95939.88
2022-10-23T05:47:34.921Z,95943.22
2022-10-23T05:49:42.949Z,95950.16
2022-10-23T05:51:56.370Z,95945.59
2022-10-23T05:54:23.998Z,95950.13
2022-10-23T05:56:51.968Z,95958.69
2022-10-23T05:58:59.686Z,95965.19
2022-10-23T06:01:18.664Z,95962.88
2022-10-23T06:03:30.168Z,95967.94
2022-10-23T06:05:28.671Z,95966.00
2022-10-23T06:07:49.826Z,95972.03
2022-10-23T06:09:49.195Z,95977.69
2022-10-23T06:11:47.312Z,95977.28
2022-10-23T06:13:50.954Z,95987.31
2022-10-23T06:15:51.657Z,95981.75
2022-10-23T06:17:55.937Z,95986.19
2022-10-23T06:20:00.865Z,95981.91
2022-10-23T06:21:59.309Z,95988.56
2022-10-23T06:24:13.803Z,95984.38
2022-10-23T06:26:29.824Z,95982.28
2022-10-23T06:28:37.952Z,95973.25
2022-10-23T06:30:36.340Z,95978.25
2022-10-23T06:32:34.950Z,95977.28
2022-10-23T06:34:42.304Z,95964.28
2022-10-23T06:36:43.856Z,95971.47
2022-10-23T06:39:01.060Z,95969.78
2022-10-23T06:41:22.182Z,95971.47
2022-10-23T06:43:25.909Z,95981.09
2022-10-23T06:45:44.129Z,95983.22
2022-10-23T06:48:07.159Z,95988.13
2022-10-23T06:50:11.785Z,95979.22
2022-10-23T06:52:41.812Z,95981.47
2022-10-23T06:54:35.199Z,95986.09
2022-10-23T06:56:50.707Z,95985.03
2022-10-23T06:58:53.374Z,95982.13
2022-10-23T07:00:51.750Z,95982.16
2022-10-23T07:02:50.271Z,95988.88
2022-10-23T07:04:48.699Z,95995.53
2022-10-23T07:06:50.263Z,95994.41
2022-10-23T07:08:56.828Z,96007.28
2022-10-23T07:11:14.283Z,96001.44
2022-10-23T07:13:14.964Z,96000.06
2022-10-23T07:15:42.028Z,95991.56
2022-10-23T07:17:45.646Z,96001.22
2022-10-23T07:19:44.160Z,95988.50
2022-10-23T07:21:43.755Z,95998.41
2022-10-23T07:23:53.611Z,96002.56
2022-10-23T07:25:53.549Z,96001.13
2022-10-23T07:27:55.856Z,95997.06
2022-10-23T07:29:56.180Z,96009.09
2022-10-23T07:32:57.726Z,96008.97
2022-10-23T07:35:37.153Z,96002.91
2022-10-23T07:37:44.092Z,95994.69
2022-10-23T07:39:42.531Z,95997.25
2022-10-23T07:41:42.598Z,95997.38
2022-10-23T07:43:41.251Z,95993.72
2022-10-23T07:45:39.534Z,95989.09
2022-10-23T07:47:52.677Z,95993.38
2022-10-23T07:49:53.904Z,95993.31
2022-10-23T07:51:54.079Z,95998.38
2022-10-23T07:53:52.486Z,95993.66
2022-10-23T07:56:15.451Z,95994.25
2022-10-23T07:58:35.052Z,96005.91
2022-10-23T08:00:42.356Z,95990.88
2022-10-23T08:02:48.064Z,95997.06
2022-10-23T08:04:50.512Z,95989.81
2022-10-23T08:07:04.958Z,95998.53
2022-10-23T08:09:09.363Z,95997.16
2022-10-23T08:11:14.908Z,96003.44
2022-10-23T08:13:21.320Z,96005.19
2022-10-23T08:15:41.559Z,95996.38
2022-10-23T08:17:53.070Z,95990.22
2022-10-23T08:20:11.213Z,95993.25
2022-10-23T08:22:14.535Z,95993.13
2022-10-23T08:24:18.580Z,95993.03
2022-10-23T08:26:19.538Z,95989.69
2022-10-23T08:28:24.816Z,95992.66
2022-10-23T08:30:26.942Z,95995.69
2022-10-23T08:32:30.137Z,95991.16
2022-10-23T08:34:30.674Z,95991.81
2022-10-23T08:36:36.475Z,95994.59
2022-10-23T08:38:36.210Z,95981.88
2022-10-23T08:40:37.551Z,95998.47
2022-10-23T08:43:07.477Z,95994.63
2022-10-23T08:45:22.234Z,95994.63
2022-10-23T08:47:31.038Z,95988.94
2022-10-23T08:49:55.335Z,95984.25
2022-10-23T08:51:58.533Z,95977.28
2022-10-23T08:54:03.882Z,95979.53
2022-10-23T08:56:05.738Z,95967.19
2022-10-23T08:58:08.697Z,95979.28
2022-10-23T09:00:10.094Z,95985.19
2022-10-23T09:02:17.664Z,95989.16
2022-10-23T09:04:18.352Z,95990.03
2022-10-23T09:06:24.494Z,95994.00
2022-10-23T09:08:41.939Z,95981.97
2022-10-23T09:11:03.167Z,95981.31
2022-10-23T09:13:12.584Z,95976.34
2022-10-23T09:15:24.231Z,95982.66
2022-10-23T09:17:26.896Z,95981.91
2022-10-23T09:19:29.558Z,95980.16
2022-10-23T09:21:29.303Z,95986.19
2022-10-23T09:23:27.592Z,95976.56
2022-10-23T09:25:28.057Z,95973.38
2022-10-23T09:27:26.383Z,95972.56
2022-10-23T09:29:27.356Z,95974.50
2022-10-23T09:31:25.643Z,95968.94
2022-10-23T09:33:27.443Z,95968.84
2022-10-23T09:35:29.529Z,95966.91
2022-10-23T09:37:29.514Z,95959.16
2022-10-23T09:39:30.854Z,95970.38
2022-10-23T09:41:31.845Z,95972.59
2022-10-23T09:43:30.438Z,95965.13
2022-10-23T09:45:38.124Z,95966.84
2022-10-23T09:47:39.543Z,95966.13
2022-10-23T09:49:41.388Z,95962.03
2022-10-23T09:51:55.791Z,95974.28
2022-10-23T09:53:56.254Z,95952.66
2022-10-23T10:00:06.242Z,95969.13
2022-10-23T10:06:57.766Z,95943.09
2022-10-23T10:08:58.785Z,95950.75
2022-10-23T10:11:02.450Z,95949.09
2022-10-23T10:21:20.074Z,95938.28
2022-10-23T10:24:27.355Z,95942.66
2022-10-23T10:26:36.316Z,95940.19
2022-10-23T10:32:37.108Z,95937.06
2022-10-23T10:38:49.061Z,95915.94
2022-10-23T10:41:01.810Z,95925.91
2022-10-23T10:43:26.467Z,95927.63
2022-10-23T10:45:30.915Z,95931.69
2022-10-23T10:47:34.733Z,95931.88
2022-10-23T10:49:40.718Z,95934.91
2022-10-23T10:52:01.422Z,95929.81
2022-10-23T10:54:17.070Z,95925.13
2022-10-23T10:56:18.044Z,95929.13
2022-10-23T10:58:19.809Z,95932.72
2022-10-23T11:00:21.916Z,95926.44
2022-10-23T11:02:29.050Z,95931.16
2022-10-23T11:04:36.599Z,95920.78
2022-10-23T11:06:38.543Z,95927.47
2022-10-23T11:08:50.041Z,95924.34
2022-10-23T11:11:01.492Z,95921.47
2022-10-23T11:12:59.887Z,95919.50
2022-10-23T11:14:59.504Z,95909.97
2022-10-23T11:17:10.195Z,95903.78
2022-10-23T11:19:15.353Z,95901.19
2022-10-23T11:21:27.347Z,95904.53
2022-10-23T11:23:54.666Z,95901.66
2022-10-23T11:26:03.954Z,95890.16
2022-10-23T11:28:20.620Z,95888.84
2022-10-23T11:30:26.176Z,95889.66
2022-10-23T11:33:03.099Z,95886.22
2022-10-23T11:35:14.713Z,95882.72
2022-10-23T11:37:18.799Z,95883.16
2022-10-23T11:39:22.138Z,95876.63
2022-10-23T11:44:51.574Z,95862.81
2022-10-23T11:47:56.380Z,95861.78
2022-10-23T11:50:14.582Z,95860.94
2022-10-23T11:52:27.230Z,95858.84
2022-10-23T11:55:02.629Z,95859.53
2022-10-23T11:59:59.063Z,95859.19
2022-10-23T12:01:59.666Z,95854.00
2022-10-23T12:04:37.157Z,95861.75
2022-10-23T12:07:37.580Z,95848.28
2022-10-23T12:10:50.739Z,95858.44
2022-10-23T12:13:47.203Z,95854.66
2022-10-23T12:16:36.817Z,95858.00
2022-10-23T12:24:58.380Z,95851.88
2022-10-23T12:27:07.596Z,95843.28
2022-10-23T12:29:18.877Z,95854.69
2022-10-23T12:31:38.391Z,95863.59
2022-10-23T12:33:51.808Z,95847.81
2022-10-23T12:36:13.276Z,95855.78
2022-10-23T12:38:16.828Z,95846.16
2022-10-23T12:40:15.262Z,95839.97
2022-10-23T12:42:21.353Z,95845.91
2022-10-23T12:44:21.825Z,95838.16
2022-10-23T12:46:30.797Z,95838.53
2022-10-23T12:48:29.024Z,95846.19
2022-10-23T12:50:30.717Z,95849.41
2022-10-23T12:52:28.898Z,95848.31
2022-10-23T12:54:27.840Z,95844.50
2022-10-23T12:56:28.582Z,95858.88
2022-10-23T12:58:32.053Z,95853.19
2022-10-23T13:00:34.811Z,95851.59
2022-10-23T13:02:34.103Z,95843.31
2022-10-23T13:04:36.974Z,95845.31
2022-10-23T13:06:39.807Z,95850.66
2022-10-23T13:08:42.249Z,95850.09
2022-10-23T13:11:03.363Z,95847.25
2022-10-23T13:13:07.424Z,95848.19
2022-10-23T13:15:19.399Z,95841.53
2022-10-23T13:17:19.202Z,95840.81
2022-10-23T13:19:27.747Z,95844.22
2022-10-23T13:21:28.722Z,95852.88
2022-10-23T13:23:31.773Z,95845.88
2022-10-23T13:25:32.608Z,95846.41
2022-10-23T13:27:35.357Z,95845.75
2022-10-23T13:29:36.430Z,95845.84
2022-10-23T13:31:35.030Z,95852.47
2022-10-23T13:33:37.982Z,95852.59
2022-10-23T13:35:37.451Z,95850.31
2022-10-23T13:37:35.766Z,95850.47
2022-10-23T13:39:35.438Z,95849.81
2022-10-23T13:41:38.788Z,95853.34
2022-10-23T13:46:40.296Z,95861.31
2022-10-23T13:48:39.778Z,95860.34
2022-10-23T13:50:37.936Z,95862.50
2022-10-23T13:52:36.221Z,95853.53
2022-10-23T13:54:34.499Z,95849.16
2022-10-23T13:56:33.894Z,95854.69
2022-10-23T13:58:32.131Z,95856.94
2022-10-23T14:00:30.366Z,95858.97
2022-10-23T14:02:28.990Z,95859.13
2022-10-23T14:04:53.925Z,95855.50
2022-10-23T14:06:58.653Z,95851.03
2022-10-23T14:12:16.693Z,95859.78
2022-10-23T14:14:15.093Z,95852.47
2022-10-23T14:16:16.168Z,95858.31
2022-10-23T14:18:14.660Z,95853.50
2022-10-23T14:20:16.383Z,95845.84
2022-10-23T14:22:16.823Z,95851.84
2022-10-23T14:24:15.570Z,95852.19
2022-10-23T14:26:15.666Z,95845.66
2022-10-23T14:28:13.983Z,95845.31
2022-10-23T14:30:13.324Z,95856.53
2022-10-23T14:32:12.065Z,95841.69
2022-10-23T14:34:13.648Z,95848.03
2022-10-23T14:36:14.573Z,95844.53
2022-10-23T14:38:12.976Z,95848.38
2022-10-23T14:40:11.723Z,95839.19
2022-10-23T14:42:10.393Z,95841.53
2022-10-23T14:44:08.755Z,95849.22
2022-10-23T14:46:11.821Z,95846.69
2022-10-23T14:48:10.192Z,95846.56
2022-10-23T14:50:12.257Z,95839.91
2022-10-23T14:52:11.719Z,95852.56
2022-10-23T14:54:10.305Z,95855.56
2022-10-23T14:56:09.122Z,95854.06
2022-10-23T14:58:07.797Z,95859.41
2022-10-23T15:00:06.896Z,95861.88
2022-10-23T15:02:05.280Z,95863.56
2022-10-23T15:04:03.788Z,95861.22
2022-10-23T15:06:02.040Z,95853.50
2022-10-23T15:08:01.828Z,95857.31
2022-10-23T15:09:59.992Z,95859.47
2022-10-23T15:11:58.080Z,95857.41
2022-10-23T15:13:57.280Z,95865.38
2022-10-23T15:16:03.617Z,95868.38
2022-10-23T15:18:01.826Z,95865.19
2022-10-23T15:20:00.091Z,95858.53
2022-10-23T15:21:58.404Z,95861.19
2022-10-23T15:23:58.327Z,95862.44
2022-10-23T15:25:57.626Z,95859.13
2022-10-23T15:27:55.801Z,95858.63
2022-10-23T15:29:54.208Z,95861.91
2022-10-23T15:31:55.559Z,95856.69
2022-10-23T15:33:53.937Z,95853.63
2022-10-23T15:35:53.491Z,95865.19
2022-10-23T15:37:51.880Z,95864.81
2022-10-23T15:39:51.666Z,95871.28
2022-10-23T15:41:53.081Z,95874.94
2022-10-23T15:43:51.939Z,95865.44
2022-10-23T15:45:53.141Z,95869.53
2022-10-23T15:47:51.555Z,95878.81
2022-10-23T15:49:50.220Z,95883.41
2022-10-23T15:51:48.447Z,95888.66
2022-10-23T15:53:46.821Z,95884.28
2022-10-23T15:55:47.907Z,95881.53
2022-10-23T15:57:48.126Z,95889.28
2022-10-23T15:59:46.434Z,95878.44
2022-10-23T16:01:44.883Z,95886.94
2022-10-23T16:03:45.150Z,95884.81
2022-10-23T16:05:43.478Z,95896.31
2022-10-23T16:07:41.620Z,95889.66
2022-10-23T16:09:39.944Z,95884.88
2022-10-23T16:11:41.424Z,95886.84
2022-10-23T16:13:39.689Z,95896.09
2022-10-23T16:15:39.797Z,95890.47
2022-10-23T16:17:38.085Z,95895.19
2022-10-23T16:19:36.625Z,95899.16
2022-10-23T16:21:36.619Z,95902.09
2022-10-23T16:23:35.337Z,95886.63
2022-10-23T16:25:36.934Z,95897.16
2022-10-23T16:27:36.568Z,95900.75
2022-10-23T16:29:34.994Z,95908.84
2022-10-23T16:31:33.923Z,95904.44
2022-10-23T16:33:32.110Z,95907.00
2022-10-23T16:35:31.152Z,95905.91
2022-10-23T16:37:38.525Z,95909.25
2022-10-23T16:39:42.029Z,95915.13
2022-10-23T16:41:59.011Z,95909.44
2022-10-23T16:44:07.392Z,95914.91
2022-10-23T16:46:19.718Z,95911.28
2022-10-23T16:48:18.291Z,95910.44
2022-10-23T16:50:16.873Z,95912.69
2022-10-23T16:52:15.243Z,95908.00
2022-10-23T16:54:14.607Z,95915.53
2022-10-23T16:56:16.398Z,95919.63
2022-10-23T16:58:14.525Z,95923.25
2022-10-23T17:00:14.944Z,95929.16
2022-10-23T17:02:13.680Z,95917.56
2022-10-23T17:04:11.945Z,95917.81
2022-10-23T17:06:12.468Z,95932.03
2022-10-23T17:08:10.944Z,95932.00
2022-10-23T17:10:10.764Z,95928.69
2022-10-23T17:12:15.379Z,95923.91
2022-10-23T17:14:16.359Z,95931.88
2022-10-23T17:16:17.844Z,95932.25
2022-10-23T17:18:16.017Z,95932.41
2022-10-23T17:20:14.207Z,95935.72
2022-10-23T17:22:13.462Z,95936.91
2022-10-23T17:24:13.095Z,95940.97
2022-10-23T17:26:13.469Z,95931.84
2022-10-23T17:28:12.595Z,95933.84
2022-10-23T17:30:13.911Z,95933.03
2022-10-23T17:32:13.970Z,95928.44
2022-10-23T17:34:14.047Z,95942.81
2022-10-23T17:36:16.916Z,95937.53
2022-10-23T17:38:18.206Z,95940.06
2022-10-23T17:40:16.453Z,95938.94
2022-10-23T17:42:14.878Z,95937.81
2022-10-23T17:44:13.393Z,95942.41
2022-10-23T17:46:14.041Z,95940.31
2022-10-23T17:48:16.860Z,95941.19
2022-10-23T17:50:15.282Z,95939.78
2022-10-23T17:52:17.979Z,95942.84
2022-10-23T17:54:18.071Z,95942.56
2022-10-23T17:56:19.259Z,95943.28
2022-10-23T17:58:17.710Z,95934.91
2022-10-23T18:00:16.744Z,95932.53
2022-10-23T18:02:15.223Z,95937.00
2022-10-23T18:04:18.439Z,95933.34
2022-10-23T18:06:18.741Z,95936.28
2022-10-23T18:08:17.384Z,95940.47
2022-10-23T18:10:15.751Z,95940.19
2022-10-23T18:12:14.046Z,95939.50
2022-10-23T18:14:12.506Z,95942.72
2022-10-23T18:16:12.531Z,95935.03
2022-10-23T18:18:10.631Z,95941.59
2022-10-23T18:20:12.081Z,95933.81
2022-10-23T18:22:10.463Z,95935.34
2022-10-23T18:24:09.067Z,95938.81
2022-10-23T18:26:07.958Z,95931.28
2022-10-23T18:28:06.365Z,95938.41
2022-10-23T18:30:05.478Z,95938.94
2022-10-23T18:32:03.847Z,95934.75
2022-10-23T18:34:04.281Z,95939.50
2022-10-23T18:36:03.992Z,95940.22
2022-10-23T18:38:03.471Z,95933.38
2022-10-23T18:40:01.746Z,95932.00
2022-10-23T18:42:00.173Z,95937.56
2022-10-23T18:43:58.489Z,95933.38
2022-10-23T18:45:56.696Z,95937.69
2022-10-23T18:47:55.155Z,95936.72
2022-10-23T18:49:53.555Z,95940.34
2022-10-23T18:51:53.269Z,95938.38
2022-10-23T18:53:51.685Z,95940.91
2022-10-23T18:55:50.364Z,95936.44
2022-10-23T18:57:49.767Z,95941.31
2022-10-23T18:59:48.574Z,95947.31
2022-10-23T19:01:46.826Z,95964.75
2022-10-23T19:03:45.225Z,95962.09
2022-10-23T19:05:44.151Z,95957.06
2022-10-23T19:11:18.152Z,95969.06
2022-10-23T19:13:17.059Z,95960.41
2022-10-23T19:15:16.124Z,95957.75
2022-10-23T19:17:26.142Z,95968.03
2022-10-23T19:19:28.066Z,95964.44
2022-10-23T19:21:31.371Z,95965.69
2022-10-23T19:23:31.534Z,95964.59
2022-10-23T19:25:34.282Z,95956.75
2022-10-23T19:27:32.764Z,95952.34
2022-10-23T19:29:31.536Z,95954.25
2022-10-23T19:31:30.975Z,95948.09
2022-10-23T19:33:29.310Z,95950.00
2022-10-23T19:35:27.679Z,95965.28
2022-10-23T19:37:26.136Z,95968.19
2022-10-23T19:39:26.140Z,95962.66
2022-10-23T19:41:24.448Z,95972.44
2022-10-23T19:43:22.732Z,95972.34
2022-10-23T19:45:21.374Z,95970.22
2022-10-23T19:47:19.693Z,95969.06
2022-10-23T19:49:20.098Z,95972.34
2022-10-23T19:51:18.565Z,95976.56
2022-10-23T19:53:16.950Z,95974.31
2022-10-23T19:55:16.653Z,95977.22
2022-10-23T19:57:20.573Z,95977.31
2022-10-23T19:59:22.680Z,95982.66
2022-10-23T20:01:24.409Z,95981.16
2022-10-23T20:03:22.949Z,95982.91
2022-10-23T20:05:21.264Z,95981.69
2022-10-23T20:07:19.619Z,95985.28
2022-10-23T20:09:18.102Z,95983.34
2022-10-23T20:11:20.783Z,95980.94
2022-10-23T20:13:20.463Z,95980.38
2022-10-23T20:15:22.190Z,95983.56
2022-10-23T20:17:22.734Z,95977.47
2022-10-23T20:19:21.165Z,95969.34
2022-10-23T20:21:19.940Z,95976.00
2022-10-23T20:23:18.169Z,95969.25
2022-10-23T20:25:16.516Z,95975.75
2022-10-23T20:27:17.027Z,95971.53
2022-10-23T20:29:15.634Z,95976.56
2022-10-23T20:31:15.310Z,95974.53
2022-10-23T20:33:13.570Z,95968.50
2022-10-23T20:35:11.963Z,95974.28
2022-10-23T20:37:10.238Z,95966.16
2022-10-23T20:39:10.411Z,95975.31
2022-10-23T20:41:08.643Z,95965.84
2022-10-23T20:43:08.148Z,95968.84
2022-10-23T20:45:08.130Z,95972.81
2022-10-23T20:47:06.390Z,95978.59
2022-10-23T20:49:04.945Z,95979.28
2022-10-23T20:51:04.598Z,95985.66
2022-10-23T20:53:02.765Z,95973.59
2022-10-23T20:55:01.150Z,95981.63
2022-10-23T20:57:00.021Z,95983.09
2022-10-23T20:59:00.496Z,95987.16
2022-10-23T21:01:03.658Z,95991.38
2022-10-23T21:03:04.246Z,95985.63
2022-10-23T21:05:02.506Z,95992.69
2022-10-23T21:07:10.476Z,95994.59
2022-10-23T21:11:14.797Z,95977.97
2022-10-23T21:13:13.521Z,95978.81
2022-10-23T21:15:13.452Z,95973.28
2022-10-23T21:17:16.661Z,95976.00
2022-10-23T21:19:16.159Z,95978.66
2022-10-23T21:21:14.927Z,95974.84
2022-10-23T21:23:13.139Z,95973.91
2022-10-23T21:25:11.642Z,95969.94
2022-10-23T21:27:09.831Z,95980.84
2022-10-23T21:29:17.842Z,95972.94
2022-10-23T21:31:19.719Z,95979.16
2022-10-23T21:33:17.983Z,95978.31
2022-10-23T21:35:16.392Z,95979.66
2022-10-23T21:37:15.199Z,95979.53
2022-10-23T21:39:13.655Z,95983.50
2022-10-23T21:41:14.821Z,95981.69
2022-10-23T21:43:13.248Z,95975.81
2022-10-23T21:45:12.049Z,95978.56
2022-10-23T21:47:11.569Z,95977.63
2022-10-23T21:49:11.794Z,95975.69
2022-10-23T21:51:14.904Z,95976.75
2022-10-23T21:53:12.957Z,95976.88
2022-10-23T21:55:11.929Z,95986.59
2022-10-23T21:57:15.347Z,95981.31
2022-10-23T21:59:15.569Z,95989.31
2022-10-23T22:01:16.682Z,95987.25
2022-10-23T22:03:16.362Z,95995.97
2022-10-23T22:05:14.873Z,95995.38
2022-10-23T22:07:15.054Z,95991.44
2022-10-23T22:09:15.853Z,95989.75
2022-10-23T22:11:14.768Z,95994.31
2022-10-23T22:13:13.088Z,95992.06
2022-10-23T22:15:14.645Z,95998.63
2022-10-23T22:17:13.015Z,95999.47
2022-10-23T22:19:14.488Z,95990.25
2022-10-23T22:21:17.011Z,95991.44
2022-10-23T22:23:15.364Z,95991.91
2022-10-23T22:25:13.721Z,95992.25
2022-10-23T22:27:12.031Z,95995.34
2022-10-23T22:29:15.278Z,96003.84
2022-10-23T22:31:16.486Z,96003.63
2022-10-23T22:33:14.859Z,96007.09
2022-10-23T22:35:14.539Z,96002.56
2022-10-23T22:37:15.702Z,95999.22
2022-10-23T22:39:14.293Z,95997.41
2022-10-23T22:41:13.792Z,95999.00
2022-10-23T22:43:12.067Z,96003.44
2022-10-23T22:45:11.209Z,96005.22
2022-10-23T22:47:09.526Z,96008.31
2022-10-23T22:49:08.458Z,96001.59
2022-10-23T22:51:12.007Z,96002.19
2022-10-23T22:53:10.570Z,96010.19
2022-10-23T22:55:10.502Z,96012.41
2022-10-23T22:57:08.860Z,96005.81
2022-10-23T22:59:07.120Z,96009.72
2022-10-23T23:01:10.146Z,96007.78
2022-10-23T23:03:08.945Z,96007.03
2022-10-23T23:05:07.676Z,96002.97
2022-10-23T23:07:07.915Z,96006.66
2022-10-23T23:09:06.173Z,96011.59
2022-10-23T23:11:04.524Z,96000.47
2022-10-23T23:13:03.029Z,96004.03
2022-10-23T23:15:01.051Z,96011.59
2022-10-23T23:16:59.322Z,96002.34
2022-10-23T23:18:59.972Z,96002.91
2022-10-23T23:21:02.454Z,95999.09
2022-10-23T23:23:01.954Z,96003.63
2022-10-23T23:25:00.227Z,95995.97
2022-10-23T23:26:58.518Z,95998.97
2022-10-23T23:28:56.681Z,96002.69
2022-10-23T23:31:03.913Z,96003.13
2022-10-23T23:33:02.058Z,96005.09
2022-10-23T23:35:00.554Z,96008.44
2022-10-23T23:36:58.912Z,96004.50
2022-10-23T23:38:59.569Z,96007.44
2022-10-23T23:40:57.876Z,96002.44
2022-10-23T23:42:56.164Z,96001.69
2022-10-23T23:45:02.742Z,95998.66
2022-10-23T23:47:08.532Z,95992.91
2022-10-23T23:49:06.728Z,95993.41
2022-10-23T23:51:05.034Z,95994.56
2022-10-23T23:53:03.735Z,95990.50
2022-10-23T23:55:03.334Z,95991.75
2022-10-23T23:57:05.795Z,95992.78
2022-10-23T23:59:03.855Z,95992.78
